TimeHST,TemperatureF,Dew PointF,Humidity,Sea Level PressureIn,VisibilityMPH,Wind Direction,Wind SpeedMPH,Gust SpeedMPH,PrecipitationIn,Events,Conditions,WindDirDegrees,DateUTC
12:54 AM,-9999,-9999,N/A,30.15,10.0,NE,10.4,19.6,N/A,,Mostly Cloudy,50,2012-10-14 10:54:00
1:17 AM,-9999,-9999,N/A,30.14,10.0,NE,8.1,20.7,N/A,,Mostly Cloudy,40,2012-10-14 11:17:00
1:33 AM,-9999,-9999,N/A,30.13,4.0,NE,15.0,25.3,0.02,,Unknown,50,2012-10-14 11:33:00
1:54 AM,-9999,-9999,N/A,30.12,10.0,NE,13.8,26.5,0.02,,Mostly Cloudy,50,2012-10-14 11:54:00
2:54 AM,-9999,-9999,N/A,30.11,10.0,NNE,11.5,-,N/A,,Mostly Cloudy,30,2012-10-14 12:54:00
3:54 AM,-9999,-9999,N/A,30.10,10.0,NNE,9.2,-,0.00,,Scattered Clouds,30,2012-10-14 13:54:00
4:54 AM,-9999,-9999,N/A,30.10,10.0,NE,12.7,19.6,N/A,,Clear,40,2012-10-14 14:54:00
5:54 AM,73.4,66.9,80,30.12,10.0,NNE,10.4,20.7,N/A,,Partly Cloudy,30,2012-10-14 15:54:00
6:54 AM,73.4,68.0,83,30.13,10.0,NE,10.4,17.3,N/A,,Partly Cloudy,40,2012-10-14 16:54:00
7:54 AM,73.4,66.0,78,30.14,10.0,NNE,12.7,23.0,N/A,,Partly Cloudy,30,2012-10-14 17:54:00
8:54 AM,77.0,66.9,71,30.14,10.0,NE,11.5,18.4,N/A,,Partly Cloudy,50,2012-10-14 18:54:00
9:54 AM,80.6,66.0,61,30.15,10.0,NE,19.6,25.3,N/A,,Scattered Clouds,50,2012-10-14 19:54:00
10:54 AM,80.6,66.9,63,30.14,10.0,NE,16.1,26.5,N/A,,Scattered Clouds,50,2012-10-14 20:54:00
11:54 AM,84.2,66.9,56,30.12,10.0,NNE,18.4,31.1,N/A,,Scattered Clouds,30,2012-10-14 21:54:00
12:54 PM,82.4,69.1,64,30.10,10.0,NE,17.3,25.3,N/A,,Scattered Clouds,50,2012-10-14 22:54:00
1:54 PM,82.4,66.9,59,30.07,10.0,NE,13.8,25.3,N/A,,Scattered Clouds,40,2012-10-14 23:54:00
2:54 PM,82.4,68.0,62,30.06,10.0,NE,17.3,26.5,N/A,,Scattered Clouds,50,2012-10-15 00:54:00
3:54 PM,78.8,66.0,65,30.07,10.0,NE,11.5,21.9,N/A,,Scattered Clouds,50,2012-10-15 01:54:00
4:54 PM,77.0,69.1,76,30.07,10.0,NNE,13.8,21.9,N/A,,Scattered Clouds,30,2012-10-15 02:54:00
5:54 PM,77.0,68.0,74,30.09,10.0,NE,10.4,19.6,N/A,,Scattered Clouds,40,2012-10-15 03:54:00
6:54 PM,73.4,68.0,83,30.10,6.0,NNE,12.7,-,0.00,Rain,Light Rain,20,2012-10-15 04:54:00
7:33 PM,-9999,-9999,N/A,30.10,8.0,NE,10.4,17.3,0.03,Rain,Light Rain,40,2012-10-15 05:33:00
7:54 PM,-9999,-9999,N/A,30.11,7.0,NE,12.7,25.3,0.03,Rain,Light Rain,40,2012-10-15 05:54:00
8:04 PM,-9999,-9999,N/A,30.11,10.0,NE,12.7,23.0,0.00,,Scattered Clouds,50,2012-10-15 06:04:00
8:51 PM,-9999,-9999,N/A,30.12,6.0,NNE,9.2,-,0.00,Rain,Light Rain,30,2012-10-15 06:51:00
8:54 PM,-9999,-9999,N/A,30.13,5.0,NNE,9.2,-,0.00,Rain,Light Rain,30,2012-10-15 06:54:00
9:06 PM,-9999,-9999,N/A,30.12,6.0,NE,12.7,-,0.00,Rain,Rain,50,2012-10-15 07:06:00
9:25 PM,-9999,-9999,N/A,30.12,6.0,NE,10.4,19.6,0.01,Rain,Light Rain,40,2012-10-15 07:25:00
9:54 PM,-9999,-9999,N/A,30.12,9.0,NE,9.2,19.6,0.01,,Mostly Cloudy,40,2012-10-15 07:54:00
10:05 PM,-9999,-9999,N/A,30.12,7.0,NE,11.5,17.3,0.01,Rain,Light Rain,50,2012-10-15 08:05:00
10:36 PM,-9999,-9999,N/A,30.12,10.0,NE,9.2,18.4,0.01,,Scattered Clouds,40,2012-10-15 08:36:00
10:54 PM,-9999,-9999,N/A,30.12,10.0,NE,9.2,23.0,0.01,,Clear,40,2012-10-15 08:54:00
11:21 PM,-9999,-9999,N/A,30.12,10.0,NE,13.8,23.0,0.00,Rain,Light Rain,40,2012-10-15 09:21:00
11:46 PM,-9999,-9999,N/A,30.12,10.0,NE,16.1,23.0,0.00,Rain,Light Rain,40,2012-10-15 09:46:00
11:54 PM,-9999,-9999,N/A,30.11,10.0,NE,13.8,25.3,0.00,Rain,Light Rain,40,2012-10-15 09:54:00